Time;durP1;ratioP1;P1;durP2;ratioP2;P2;SDS_P1;SDS_P2;PMS_P1;PMS_P2;Temp;Humidity;BMP_temperature;BMP_pressure;BME280_temperature;BME280_humidity;BME280_pressure;Samples;Min_cycle;Max_cycle;Signal;HPM_P1;HPM_P2
2022/11/14 00:00:34;;;;;;;42.65;24.00;;;6.10;99.90;;;;;;5049547;28;20079;-59
2022/11/14 00:03:02;;;;;;;45.30;23.92;;;6.30;99.90;;;;;;5048689;28;20092;-58
2022/11/14 00:05:28;;;;;;;42.70;23.08;;;6.30;99.90;;;;;;5049325;28;20108;-58
2022/11/14 00:07:54;;;;;;;42.92;22.70;;;6.30;99.90;;;;;;5047371;28;20494;-58
2022/11/14 00:10:20;;;;;;;43.83;23.55;;;6.30;99.90;;;;;;5049302;28;20045;-58
2022/11/14 00:12:46;;;;;;;39.83;23.42;;;6.30;99.90;;;;;;5048318;28;20057;-58
2022/11/14 00:15:12;;;;;;;41.40;24.65;;;6.30;99.90;;;;;;5046702;28;20045;-58
2022/11/14 00:17:38;;;;;;;46.03;24.48;;;6.60;99.90;;;;;;5048187;28;20053;-59
2022/11/14 00:20:06;;;;;;;41.08;24.60;;;6.80;99.90;;;;;;5048578;28;20053;-58
2022/11/14 00:22:32;;;;;;;43.10;25.20;;;6.30;99.90;;;;;;5048487;28;20056;-58
2022/11/14 00:24:57;;;;;;;45.10;25.10;;;6.30;99.90;;;;;;5047086;28;20114;-58
2022/11/14 00:27:23;;;;;;;45.88;25.88;;;6.30;99.90;;;;;;5047315;28;20052;-58
2022/11/14 00:29:49;;;;;;;47.15;26.48;;;7.10;99.90;;;;;;5047038;28;20082;-58
2022/11/14 00:32:15;;;;;;;46.78;26.20;;;6.30;99.90;;;;;;5048603;28;20041;-58
2022/11/14 00:34:40;;;;;;;50.53;27.45;;;6.40;99.90;;;;;;5046972;28;20048;-58
2022/11/14 00:37:06;;;;;;;48.75;27.85;;;6.30;99.90;;;;;;5048186;28;20394;-59
2022/11/14 00:39:32;;;;;;;48.97;28.40;;;6.30;99.90;;;;;;5046939;28;20148;-59
2022/11/14 00:41:57;;;;;;;49.15;27.80;;;6.30;99.90;;;;;;5048008;28;20037;-58
2022/11/14 00:44:23;;;;;;;51.83;30.35;;;6.30;99.90;;;;;;5046698;28;20124;-58
2022/11/14 00:46:49;;;;;;;52.90;29.88;;;6.30;99.90;;;;;;5046669;28;20076;-58
2022/11/14 00:49:14;;;;;;;53.85;30.27;;;6.30;99.90;;;;;;5048300;28;20513;-58
2022/11/14 00:51:40;;;;;;;55.78;30.55;;;6.30;99.90;;;;;;5048565;28;20487;-59
2022/11/14 00:54:06;;;;;;;49.72;30.65;;;7.00;99.90;;;;;;5047974;28;20052;-58
2022/11/14 00:56:31;;;;;;;57.85;32.53;;;5.90;99.90;;;;;;5046870;28;20053;-58
2022/11/14 00:58:57;;;;;;;58.78;31.55;;;6.20;99.90;;;;;;5048510;28;20048;-58
2022/11/14 01:01:23;;;;;;;52.55;31.95;;;6.20;99.90;;;;;;5048451;28;20072;-58
2022/11/14 01:03:50;;;;;;;56.38;31.83;;;6.20;99.90;;;;;;5047955;28;20048;-58
2022/11/14 01:06:16;;;;;;;60.90;33.42;;;6.20;99.90;;;;;;5048261;28;20547;-58
2022/11/14 01:08:42;;;;;;;62.78;34.80;;;6.10;99.90;;;;;;5047490;28;20219;-58
2022/11/14 01:11:15;;;;;;;64.07;33.97;;;6.10;99.90;;;;;;5047006;28;20689;-58
2022/11/14 01:13:40;;;;;;;;;;;6.00;99.90;;;;;;5047950;28;20084;-58
2022/11/14 01:16:06;;;;;;;62.28;33.78;;;5.80;99.90;;;;;;5045751;28;20452;-58
2022/11/14 01:18:32;;;;;;;67.10;34.75;;;5.90;99.90;;;;;;5047460;28;20401;-58
2022/11/14 01:20:59;;;;;;;66.22;36.17;;;5.80;99.90;;;;;;5046353;28;20049;-57
2022/11/14 01:23:24;;;;;;;60.30;35.75;;;5.90;99.90;;;;;;5047730;28;20533;-57
2022/11/14 01:25:50;;;;;;;67.00;37.08;;;5.90;99.90;;;;;;5047692;28;20138;-57
2022/11/14 01:28:18;;;;;;;70.25;37.60;;;6.20;99.90;;;;;;5047250;28;20055;-58
2022/11/14 01:30:44;;;;;;;70.95;38.67;;;5.90;99.90;;;;;;5047782;28;20044;-58
2022/11/14 01:33:10;;;;;;;68.78;38.72;;;5.90;99.90;;;;;;5046010;28;20190;-58
2022/11/14 01:35:37;;;;;;;69.45;37.45;;;5.90;99.90;;;;;;5047927;28;20128;-58
2022/11/14 01:38:04;;;;;;;71.72;39.78;;;5.90;99.90;;;;;;5047521;28;20625;-57
2022/11/14 01:40:31;;;;;;;72.07;37.88;;;5.90;99.90;;;;;;5047656;28;20049;-58
2022/11/14 01:43:15;;;;;;;72.82;39.53;;;5.90;99.90;;;;;;5047018;28;20080;-58
2022/11/14 01:46:20;;;;;;;71.68;39.13;;;5.80;99.90;;;;;;5047196;28;20056;-58
2022/11/14 01:48:49;;;;;;;72.40;38.35;;;5.80;99.90;;;;;;5037645;28;20048;-57
2022/11/14 01:51:27;;;;;;;74.85;41.65;;;5.80;99.90;;;;;;5046137;28;20094;-58
2022/11/14 01:53:57;;;;;;;75.72;40.80;;;5.80;99.90;;;;;;5047402;28;20126;-58
2022/11/14 01:56:39;;;;;;;73.80;39.88;;;7.00;99.90;;;;;;5047672;28;20028;-58
2022/11/14 01:59:11;;;;;;;71.00;37.92;;;5.70;99.90;;;;;;5045969;28;20045;-58
2022/11/14 02:01:47;;;;;;;81.45;40.33;;;5.70;99.90;;;;;;5047173;28;20055;-58
2022/11/14 02:04:18;;;;;;;76.90;39.78;;;5.70;99.90;;;;;;5046811;28;20049;-58
2022/11/14 02:06:45;;;;;;;80.03;40.45;;;5.70;99.90;;;;;;5046291;28;20043;-57
2022/11/14 02:09:11;;;;;;;75.43;39.30;;;5.70;99.90;;;;;;5046864;28;20044;-58
2022/11/14 02:11:40;;;;;;;79.90;41.30;;;5.70;99.90;;;;;;5046767;28;20037;-57
2022/11/14 02:14:06;;;;;;;77.72;40.08;;;5.70;99.90;;;;;;5044686;28;20399;-58
2022/11/14 02:16:32;;;;;;;76.43;39.95;;;5.70;99.90;;;;;;5046467;28;20037;-57
2022/11/14 02:18:58;;;;;;;77.72;41.42;;;5.70;99.90;;;;;;5044651;28;20057;-58
2022/11/14 02:21:24;;;;;;;79.13;40.83;;;5.60;99.90;;;;;;5046615;28;20277;-57
2022/11/14 02:23:49;;;;;;;80.72;43.10;;;5.70;99.90;;;;;;5046346;28;20075;-58
2022/11/14 02:26:20;;;;;;;72.28;37.42;;;5.70;99.90;;;;;;5044899;28;20061;-58
2022/11/14 02:28:46;;;;;;;77.40;38.80;;;5.80;99.90;;;;;;5046130;28;20045;-58
2022/11/14 02:31:13;;;;;;;75.40;40.28;;;5.80;99.90;;;;;;5045623;28;20044;-59
2022/11/14 02:33:39;;;;;;;75.38;40.03;;;5.80;99.90;;;;;;5045886;28;20129;-58
2022/11/14 02:36:05;;;;;;;74.75;38.83;;;5.80;99.90;;;;;;5045744;28;20132;-58
2022/11/14 02:38:31;;;;;;;77.97;39.03;;;5.90;99.90;;;;;;5045550;28;20047;-58
2022/11/14 02:40:59;;;;;;;75.30;38.75;;;5.90;99.90;;;;;;5046061;28;20048;-57
2022/11/14 02:43:24;;;;;;;68.68;37.50;;;5.60;99.90;;;;;;5045920;28;20044;-58
2022/11/14 02:45:50;;;;;;;74.75;38.05;;;5.90;99.90;;;;;;5045000;28;20126;-58
2022/11/14 02:48:16;;;;;;;73.80;37.65;;;5.90;99.90;;;;;;5045671;28;20405;-58
2022/11/14 02:50:41;;;;;;;75.03;38.35;;;6.60;99.90;;;;;;5046104;28;20041;-58
2022/11/14 02:53:07;;;;;;;72.28;38.42;;;6.60;99.90;;;;;;5045948;28;20051;-58
2022/11/14 02:55:33;;;;;;;76.40;39.22;;;5.70;99.90;;;;;;5046124;28;20037;-59
2022/11/14 02:57:58;;;;;;;72.18;37.90;;;6.20;99.90;;;;;;5046016;28;20099;-58
2022/11/14 03:00:24;;;;;;;71.32;38.97;;;6.80;99.90;;;;;;5045603;28;20083;-58
2022/11/14 03:02:52;;;;;;;72.95;39.78;;;6.00;99.90;;;;;;5045820;28;20060;-57
2022/11/14 03:05:17;;;;;;;72.53;39.92;;;6.10;99.90;;;;;;5045346;28;20095;-57
2022/11/14 03:07:43;;;;;;;75.00;39.97;;;6.00;99.90;;;;;;5045263;28;20041;-58
2022/11/14 03:10:10;;;;;;;77.50;38.55;;;6.00;99.90;;;;;;5045098;28;20048;-58
2022/11/14 03:12:36;;;;;;;69.82;35.50;;;5.80;99.90;;;;;;5043414;28;20084;-58
2022/11/14 03:15:02;;;;;;;69.43;39.10;;;6.10;99.90;;;;;;5044440;28;20713;-58
2022/11/14 03:17:32;;;;;;;72.15;37.90;;;6.40;99.90;;;;;;5047002;28;20045;-60
2022/11/14 03:19:57;;;;;;;69.22;38.45;;;6.80;99.90;;;;;;5048267;28;20052;-58
2022/11/14 03:22:23;;;;;;;72.30;38.22;;;5.90;99.90;;;;;;5049032;28;20052;-58
2022/11/14 03:24:49;;;;;;;70.90;37.97;;;6.10;99.90;;;;;;5048975;28;20056;-58
2022/11/14 03:27:14;;;;;;;72.07;37.97;;;6.10;99.90;;;;;;5048886;28;20049;-58
2022/11/14 03:29:40;;;;;;;70.00;39.22;;;6.10;99.90;;;;;;5048977;28;20057;-58
2022/11/14 03:32:05;;;;;;;63.33;37.00;;;5.90;99.90;;;;;;5049404;28;20041;-58
2022/11/14 03:34:31;;;;;;;69.05;37.60;;;6.10;99.90;;;;;;5049659;28;20087;-58
2022/11/14 03:36:57;;;;;;;68.03;37.40;;;5.90;99.90;;;;;;5049735;28;20040;-58
2022/11/14 03:39:23;;;;;;;68.13;37.72;;;6.10;99.90;;;;;;5049523;28;20048;-58
2022/11/14 03:41:48;;;;;;;65.10;35.95;;;6.10;99.90;;;;;;5048465;28;20044;-58
2022/11/14 03:44:14;;;;;;;73.55;38.65;;;6.80;99.90;;;;;;5047457;28;20118;-58
2022/11/14 03:46:39;;;;;;;70.85;37.80;;;6.20;99.90;;;;;;5048252;28;20049;-58
2022/11/14 03:49:05;;;;;;;68.35;37.20;;;6.10;99.90;;;;;;5047766;28;20044;-58
2022/11/14 03:51:31;;;;;;;65.53;36.17;;;6.10;99.90;;;;;;5049057;28;20033;-58
2022/11/14 03:53:56;;;;;;;65.63;36.63;;;6.10;99.90;;;;;;5048860;28;20651;-58
2022/11/14 03:56:22;;;;;;;67.53;38.05;;;5.90;99.90;;;;;;5047257;28;20067;-58
2022/11/14 03:58:48;;;;;;;65.47;36.95;;;6.10;99.90;;;;;;5049306;28;20048;-58
2022/11/14 04:01:13;;;;;;;61.75;35.47;;;6.10;99.90;;;;;;5048565;28;20048;-58
2022/11/14 04:03:39;;;;;;;68.88;38.00;;;4.50;99.90;;;;;;5048616;28;20056;-58
2022/11/14 04:06:05;;;;;;;63.85;35.53;;;6.50;99.90;;;;;;5049229;28;20051;-58
2022/11/14 04:08:31;;;;;;;58.10;34.67;;;6.10;99.90;;;;;;5049141;28;20041;-58
2022/11/14 04:10:57;;;;;;;60.42;36.30;;;6.10;99.90;;;;;;5049483;28;20037;-58
2022/11/14 04:13:23;;;;;;;61.13;35.22;;;6.80;99.90;;;;;;5049223;28;20521;-58
2022/11/14 04:15:56;;;;;;;59.20;33.47;;;5.90;99.90;;;;;;5048805;28;20132;-58
2022/11/14 04:18:23;;;;;;;62.90;35.78;;;6.10;99.90;;;;;;5030612;28;20064;-57
2022/11/14 04:20:49;;;;;;;67.38;37.15;;;6.10;99.90;;;;;;5048821;28;20080;-58
2022/11/14 04:23:15;;;;;;;59.47;36.53;;;6.00;99.90;;;;;;5048470;28;20091;-57
2022/11/14 04:25:43;;;;;;;62.03;37.15;;;6.10;99.90;;;;;;5049056;28;20079;-58
2022/11/14 04:28:08;;;;;;;58.63;34.88;;;5.90;99.90;;;;;;5048077;28;20080;-57
2022/11/14 04:30:34;;;;;;;58.63;34.90;;;6.00;99.90;;;;;;5048643;28;20080;-58
2022/11/14 04:33:00;;;;;;;64.00;34.80;;;5.90;99.90;;;;;;5048327;28;20048;-58
2022/11/14 04:35:25;;;;;;;63.17;35.67;;;5.80;99.90;;;;;;5047268;28;20515;-58
2022/11/14 04:37:51;;;;;;;65.30;36.88;;;6.00;99.90;;;;;;5048630;28;20048;-57
2022/11/14 04:40:16;;;;;;;64.57;37.25;;;6.00;99.90;;;;;;5046827;28;20053;-58
2022/11/14 04:42:42;;;;;;;64.40;36.15;;;6.00;99.90;;;;;;5046674;28;20071;-57
2022/11/14 04:45:08;;;;;;;63.20;36.08;;;6.00;99.90;;;;;;5048076;28;20048;-57
2022/11/14 04:47:34;;;;;;;67.57;36.47;;;6.00;99.90;;;;;;5048254;28;20049;-58
2022/11/14 04:49:59;;;;;;;67.43;36.80;;;5.90;99.90;;;;;;5048313;28;20037;-58
2022/11/14 04:52:25;;;;;;;60.65;35.22;;;6.00;99.90;;;;;;5048200;28;20048;-59
2022/11/14 04:54:51;;;;;;;64.57;35.70;;;6.00;99.90;;;;;;5047857;28;20045;-57
2022/11/14 04:57:16;;;;;;;66.35;37.33;;;6.00;99.90;;;;;;5047688;28;20041;-57
2022/11/14 04:59:42;;;;;;;62.88;35.17;;;5.80;99.90;;;;;;5046344;28;20105;-58
2022/11/14 05:02:08;;;;;;;60.47;34.90;;;6.40;99.90;;;;;;5047976;28;20033;-58
2022/11/14 05:04:34;;;;;;;63.00;36.05;;;6.00;99.90;;;;;;5047170;28;20143;-58
2022/11/14 05:06:59;;;;;;;63.03;36.63;;;6.00;99.90;;;;;;5047711;28;20045;-57
2022/11/14 05:09:25;;;;;;;66.47;35.50;;;5.80;99.90;;;;;;5047519;28;20095;-57
2022/11/14 05:11:51;;;;;;;66.22;38.58;;;5.90;99.90;;;;;;5047869;28;20051;-58
2022/11/14 05:14:16;;;;;;;69.00;37.40;;;5.90;99.90;;;;;;5046215;28;20044;-57
2022/11/14 05:16:42;;;;;;;63.58;37.13;;;5.90;99.90;;;;;;5047616;28;20384;-58
2022/11/14 05:19:08;;;;;;;69.28;39.05;;;5.90;99.90;;;;;;5045873;28;20063;-58
2022/11/14 05:21:33;;;;;;;69.97;37.97;;;5.90;99.90;;;;;;5046872;28;20037;-58
2022/11/14 05:23:59;;;;;;;70.32;36.63;;;5.90;99.90;;;;;;5045811;28;20562;-57
2022/11/14 05:26:25;;;;;;;67.35;35.45;;;5.70;99.90;;;;;;5047374;28;20069;-58
2022/11/14 05:28:50;;;;;;;65.65;35.67;;;5.70;99.90;;;;;;5047490;28;20045;-58
2022/11/14 05:31:17;;;;;;;65.95;34.83;;;5.90;99.90;;;;;;5047674;28;20380;-58
2022/11/14 05:33:44;;;;;;;68.47;36.75;;;5.90;99.90;;;;;;5045982;28;20051;-58
2022/11/14 05:36:12;;;;;;;69.78;36.03;;;5.90;99.90;;;;;;5047551;28;20051;-58
2022/11/14 05:38:38;;;;;;;66.20;36.63;;;5.90;99.90;;;;;;5046953;28;20106;-58
2022/11/14 05:41:11;;;;;;;67.35;37.83;;;5.80;99.90;;;;;;5045304;28;20044;-57
2022/11/14 05:43:38;;;;;;;65.05;35.65;;;5.60;99.90;;;;;;5046976;28;20084;-58
2022/11/14 05:46:06;;;;;;;64.13;36.92;;;5.80;99.90;;;;;;5046981;28;20487;-57
2022/11/14 05:48:31;;;;;;;65.97;36.03;;;5.80;99.90;;;;;;5046994;28;20141;-58
2022/11/14 05:50:59;;;;;;;66.93;37.30;;;6.40;99.90;;;;;;5047154;28;20115;-57
2022/11/14 05:53:26;;;;;;;74.15;36.67;;;5.70;99.90;;;;;;5047035;28;20088;-58
2022/11/14 05:55:52;;;;;;;73.50;38.00;;;5.70;99.90;;;;;;5047196;28;20566;-58
2022/11/14 05:58:18;;;;;;;70.82;37.20;;;5.70;99.90;;;;;;5046840;28;20044;-58
2022/11/14 06:00:44;;;;;;;67.10;36.13;;;6.30;99.90;;;;;;5046536;28;20059;-57
2022/11/14 06:03:10;;;;;;;73.43;37.17;;;5.70;99.90;;;;;;5046722;28;20053;-58
2022/11/14 06:05:36;;;;;;;73.05;35.10;;;5.50;99.90;;;;;;5046653;28;20102;-58
2022/11/14 06:08:02;;;;;;;74.15;36.78;;;5.40;99.90;;;;;;5046863;28;20546;-58
2022/11/14 06:10:28;;;;;;;72.40;37.35;;;5.60;99.90;;;;;;5045122;28;20088;-58
2022/11/14 06:12:54;;;;;;;76.70;39.28;;;5.60;99.90;;;;;;5046639;28;20376;-58
2022/11/14 06:15:20;;;;;;;72.20;36.42;;;5.50;99.90;;;;;;5046950;28;20053;-58
2022/11/14 06:17:46;;;;;;;77.20;38.13;;;5.40;99.90;;;;;;5046240;28;20474;-58
2022/11/14 06:20:12;;;;;;;79.32;38.22;;;5.50;99.90;;;;;;5047251;28;20051;-57
2022/11/14 06:22:41;;;;;;;73.10;36.70;;;5.20;99.90;;;;;;5046930;28;20128;-57
2022/11/14 06:25:07;;;;;;;80.40;37.72;;;5.50;99.90;;;;;;5046830;28;20053;-57
2022/11/14 06:27:33;;;;;;;81.90;39.60;;;5.50;99.90;;;;;;5045114;28;20389;-58
2022/11/14 06:29:59;;;;;;;80.28;37.88;;;5.40;99.90;;;;;;5046836;28;20051;-58
2022/11/14 06:32:24;;;;;;;74.10;37.53;;;5.40;99.90;;;;;;5046661;28;20076;-58
2022/11/14 06:34:50;;;;;;;72.53;36.40;;;5.40;99.90;;;;;;5046083;28;20089;-58
2022/11/14 06:37:16;;;;;;;74.60;36.15;;;5.40;99.90;;;;;;5046431;28;20176;-58
2022/11/14 06:39:41;;;;;;;76.00;37.15;;;5.40;99.90;;;;;;5045794;28;20409;-58
2022/11/14 06:42:07;;;;;;;79.57;38.55;;;5.10;99.90;;;;;;5046393;28;20485;-58
2022/11/14 06:44:33;;;;;;;75.20;36.88;;;5.80;99.90;;;;;;5044582;28;20053;-58
2022/11/14 06:46:58;;;;;;;74.78;37.00;;;5.00;99.90;;;;;;5044580;28;20040;-58
2022/11/14 06:49:24;;;;;;;72.72;37.00;;;5.30;99.90;;;;;;5046098;28;20048;-58
2022/11/14 06:51:50;;;;;;;77.47;38.08;;;5.10;99.90;;;;;;5045464;28;20037;-58
2022/11/14 06:54:16;;;;;;;70.40;37.42;;;5.30;99.90;;;;;;5045927;28;20053;-57
2022/11/14 06:56:41;;;;;;;79.88;37.75;;;6.10;99.90;;;;;;5046122;28;20814;-58
2022/11/14 06:59:07;;;;;;;85.35;39.20;;;5.30;99.90;;;;;;5046086;28;20045;-57
2022/11/14 07:01:33;;;;;;;97.95;42.40;;;5.30;99.90;;;;;;5045990;28;20045;-57
2022/11/14 07:04:01;;;;;;;77.05;36.88;;;5.30;99.90;;;;;;5045591;28;20067;-57
2022/11/14 07:06:28;;;;;;;77.15;36.83;;;5.30;99.90;;;;;;5046116;28;20051;-58
2022/11/14 07:08:55;;;;;;;75.38;36.70;;;5.30;99.90;;;;;;5044213;28;20136;-58
2022/11/14 07:11:28;;;;;;;72.93;36.90;;;5.30;99.90;;;;;;5044668;28;20048;-58
2022/11/14 07:13:58;;;;;;;73.85;36.67;;;5.30;99.90;;;;;;5044354;28;20114;-57
2022/11/14 07:16:35;;;;;;;78.50;37.58;;;5.30;99.90;;;;;;5044359;28;20123;-57
2022/11/14 07:19:04;;;;;;;79.10;39.15;;;5.20;99.90;;;;;;5028410;28;20151;-57
2022/11/14 07:21:32;;;;;;;73.60;36.25;;;5.00;99.90;;;;;;5046147;28;20799;-58
2022/11/14 07:23:58;;;;;;;75.78;35.95;;;5.00;99.90;;;;;;5046222;28;20049;-58
2022/11/14 07:26:24;;;;;;;77.72;38.20;;;5.10;99.90;;;;;;5044886;28;20037;-57
2022/11/14 07:28:49;;;;;;;78.07;39.08;;;5.20;99.90;;;;;;5045729;28;20033;-58
2022/11/14 07:31:17;;;;;;;71.35;35.83;;;5.30;99.90;;;;;;5027637;28;20072;-58
2022/11/14 07:33:44;;;;;;;74.82;39.28;;;5.30;99.90;;;;;;5043759;28;20131;-58
2022/11/14 07:36:12;;;;;;;72.97;37.08;;;5.30;99.90;;;;;;5045239;28;20072;-58
2022/11/14 07:38:38;;;;;;;75.03;38.30;;;5.40;99.90;;;;;;5045459;28;20045;-58
2022/11/14 07:41:06;;;;;;;74.13;36.92;;;5.40;99.90;;;;;;5045530;28;20118;-57
2022/11/14 07:43:32;;;;;;;73.50;38.53;;;5.50;99.90;;;;;;5045054;28;20064;-58
2022/11/14 07:45:59;;;;;;;78.50;40.88;;;5.50;99.90;;;;;;5044822;28;20497;-58
2022/11/14 07:48:25;;;;;;;71.97;38.47;;;5.50;99.90;;;;;;5044244;28;20161;-57
2022/11/14 07:50:51;;;;;;;90.93;44.75;;;5.50;99.90;;;;;;5045397;28;20555;-58
2022/11/14 07:53:16;;;;;;;72.20;36.58;;;5.60;99.90;;;;;;5043380;28;20044;-58
2022/11/14 07:55:43;;;;;;;71.00;35.65;;;5.60;99.90;;;;;;5045209;28;20087;-58
2022/11/14 07:58:08;;;;;;;69.10;36.35;;;5.60;99.90;;;;;;5045468;28;20091;-58
2022/11/14 08:00:34;;;;;;;71.07;35.30;;;6.30;99.90;;;;;;5045268;28;20073;-58
2022/11/14 08:03:00;;;;;;;62.88;34.13;;;5.70;99.90;;;;;;5043912;28;20061;-58
2022/11/14 08:05:26;;;;;;;60.97;34.20;;;5.70;99.90;;;;;;5047693;28;20068;-58
2022/11/14 08:07:52;;;;;;;62.70;34.83;;;5.70;99.90;;;;;;5047637;28;20040;-58
2022/11/14 08:10:18;;;;;;;63.90;33.92;;;5.70;99.90;;;;;;5048816;28;20080;-58
2022/11/14 08:12:45;;;;;;;60.78;35.10;;;5.50;99.90;;;;;;5048579;28;20080;-58
2022/11/14 08:15:12;;;;;;;59.65;32.70;;;5.70;99.90;;;;;;5048581;28;20052;-58
2022/11/14 08:17:38;;;;;;;62.88;34.22;;;6.40;99.90;;;;;;5048505;28;20715;-58
2022/11/14 08:20:06;;;;;;;63.42;36.33;;;5.70;99.90;;;;;;5048245;28;20047;-58
2022/11/14 08:22:32;;;;;;;63.67;32.83;;;5.70;99.90;;;;;;5047081;28;20044;-58
2022/11/14 08:24:57;;;;;;;67.18;35.53;;;6.00;99.90;;;;;;5046500;28;20118;-58
2022/11/14 08:27:24;;;;;;;57.75;32.60;;;5.80;99.90;;;;;;5048208;28;20039;-58
2022/11/14 08:29:52;;;;;;;62.10;33.88;;;5.80;99.90;;;;;;5046286;28;20524;-58
2022/11/14 08:32:19;;;;;;;60.63;34.25;;;5.90;99.90;;;;;;5048124;28;20041;-58
2022/11/14 08:34:44;;;;;;;61.00;35.00;;;6.00;99.90;;;;;;5048061;28;20069;-58
2022/11/14 08:37:10;;;;;;;57.88;33.83;;;6.00;99.90;;;;;;5030306;28;20586;-58
2022/11/14 08:39:36;;;;;;;57.40;31.90;;;6.00;99.90;;;;;;5029428;28;20044;-57
2022/11/14 08:42:02;;;;;;;58.72;32.50;;;6.00;99.90;;;;;;5046160;28;20418;-58
2022/11/14 08:44:28;;;;;;;57.08;34.03;;;6.10;99.90;;;;;;5048328;28;20041;-58
2022/11/14 08:46:53;;;;;;;58.40;34.50;;;5.90;99.90;;;;;;5047742;28;20048;-57
2022/11/14 08:49:19;;;;;;;58.47;32.80;;;6.20;99.90;;;;;;5047814;28;20078;-58
2022/11/14 08:51:45;;;;;;;54.58;32.40;;;6.90;99.90;;;;;;5047627;28;20040;-58
2022/11/14 08:54:10;;;;;;;56.60;34.13;;;6.20;99.90;;;;;;5047690;28;20045;-58
2022/11/14 08:56:36;;;;;;;57.97;32.45;;;6.30;99.90;;;;;;5047153;28;20114;-58
2022/11/14 08:59:03;;;;;;;54.75;33.00;;;6.30;99.90;;;;;;5047748;28;20051;-58
2022/11/14 09:01:31;;;;;;;61.28;32.63;;;6.30;99.90;;;;;;5047902;28;20784;-59
2022/11/14 09:03:57;;;;;;;53.85;32.75;;;6.30;99.90;;;;;;5046588;28;20052;-59
2022/11/14 09:06:23;;;;;;;58.67;33.20;;;6.50;99.90;;;;;;5046449;28;20087;-60
2022/11/14 09:08:48;;;;;;;55.45;30.42;;;6.60;99.90;;;;;;5042419;28;20037;-61
2022/11/14 09:11:14;;;;;;;57.92;32.10;;;6.60;99.90;;;;;;5008165;28;20049;-60
2022/11/14 09:13:40;;;;;;;57.33;33.65;;;6.80;99.90;;;;;;5024344;28;20064;-61
2022/11/14 09:16:05;;;;;;;57.60;33.60;;;6.80;99.90;;;;;;5023919;28;20076;-61
2022/11/14 09:18:31;;;;;;;51.95;32.40;;;6.80;99.90;;;;;;5024022;28;20081;-61
2022/11/14 09:21:02;;;;;;;55.25;32.75;;;6.40;99.90;;;;;;5024624;28;20128;-61
2022/11/14 09:23:27;;;;;;;56.28;32.50;;;6.70;99.90;;;;;;5024275;28;20130;-60
2022/11/14 09:25:53;;;;;;;56.85;32.80;;;7.30;99.90;;;;;;5023248;28;20168;-60
2022/11/14 09:28:19;;;;;;;56.30;34.05;;;7.20;99.90;;;;;;5022846;28;20052;-60
2022/11/14 09:30:45;;;;;;;55.20;32.85;;;6.80;99.90;;;;;;5024417;28;20053;-60
2022/11/14 09:33:10;;;;;;;54.35;32.60;;;6.80;99.90;;;;;;5023437;28;20054;-59
2022/11/14 09:35:36;;;;;;;51.45;32.90;;;7.50;99.90;;;;;;5024491;28;20415;-60
2022/11/14 09:38:09;;;;;;;51.88;31.70;;;7.10;99.90;;;;;;5023115;28;20091;-62
2022/11/14 09:40:56;;;;;;;55.47;32.72;;;8.10;99.90;;;;;;5024589;28;20138;-61
2022/11/14 09:43:38;;;;;;;49.17;31.27;;;7.50;99.90;;;;;;5024655;28;20049;-62
2022/11/14 09:46:11;;;;;;;49.38;30.30;;;7.80;99.90;;;;;;5024147;28;20364;-61
2022/11/14 09:48:37;;;;;;;44.72;28.58;;;8.00;99.90;;;;;;5022755;28;20049;-61
2022/11/14 09:51:16;;;;;;;52.53;32.20;;;8.10;99.90;;;;;;5022257;28;20123;-61
2022/11/14 09:53:46;;;;;;;44.75;29.80;;;8.20;99.90;;;;;;5024086;28;20041;-61
2022/11/14 09:56:21;;;;;;;49.97;29.60;;;9.00;99.90;;;;;;5022361;28;20049;-60
2022/11/14 09:58:46;;;;;;;44.08;28.33;;;8.10;99.90;;;;;;5022668;28;20406;-59
2022/11/14 10:01:40;;;;;;;49.05;29.13;;;7.60;99.90;;;;;;5022335;28;20052;-56
2022/11/14 10:04:28;;;;;;;40.83;27.23;;;7.70;99.90;;;;;;5020739;28;20057;-53
2022/11/14 10:07:17;;;;;;;45.40;28.35;;;7.60;99.90;;;;;;5017510;28;20187;-56
2022/11/14 10:10:01;;;;;;;46.03;29.20;;;7.50;99.90;;;;;;5006035;28;20046;-55
2022/11/14 10:13:03;;;;;;;45.92;28.95;;;7.50;99.90;;;;;;5022626;28;20075;-55
2022/11/14 10:15:48;;;;;;;46.03;28.48;;;7.50;99.90;;;;;;5013647;28;20049;-55
2022/11/14 10:18:14;;;;;;;44.10;27.73;;;7.40;99.90;;;;;;5022185;28;20084;-56
2022/11/14 10:21:06;;;;;;;46.63;28.20;;;7.40;99.90;;;;;;5022175;28;20149;-56
2022/11/14 10:23:50;;;;;;;42.38;28.30;;;7.40;99.90;;;;;;5022595;28;20142;-55
2022/11/14 10:26:25;;;;;;;43.40;27.65;;;7.60;99.90;;;;;;5021631;28;20049;-55
2022/11/14 10:28:59;;;;;;;44.85;28.20;;;7.80;99.90;;;;;;5022573;28;20043;-47
2022/11/14 10:31:37;;;;;;;46.20;28.45;;;7.90;99.90;;;;;;5022158;28;20099;-53
2022/11/14 10:34:11;;;;;;;41.03;26.73;;;7.70;99.90;;;;;;5003514;28;20045;-47
2022/11/14 10:37:22;;;;;;;46.47;27.75;;;7.90;99.90;;;;;;5021771;28;20049;-46
2022/11/14 10:39:54;;;;;;;43.03;27.17;;;7.70;99.90;;;;;;5018693;28;20053;-49
2022/11/14 10:42:28;;;;;;;45.08;28.45;;;7.50;99.90;;;;;;5020590;28;20056;-50
2022/11/14 10:45:20;;;;;;;42.45;27.65;;;7.50;99.90;;;;;;5022236;28;20049;-51
2022/11/14 10:47:52;;;;;;;41.38;26.45;;;7.20;99.90;;;;;;5022103;28;20709;-50
2022/11/14 10:50:21;;;;;;;48.33;29.10;;;7.40;99.90;;;;;;5020481;28;20076;-52
2022/11/14 10:52:51;;;;;;;44.58;28.48;;;7.30;99.90;;;;;;5021867;28;20125;-48
2022/11/14 10:55:18;;;;;;;45.15;28.77;;;7.20;99.90;;;;;;5021981;28;20139;-52
2022/11/14 10:57:47;;;;;;;46.33;29.08;;;7.20;99.90;;;;;;5021009;28;20461;-52
2022/11/14 11:00:18;;;;;;;46.25;29.08;;;8.10;99.90;;;;;;5020264;28;20751;-52
2022/11/14 11:02:56;;;;;;;47.50;30.08;;;7.20;99.90;;;;;;5003132;28;20053;-53
2022/11/14 11:05:27;;;;;;;40.75;28.27;;;7.20;99.90;;;;;;5020056;28;20041;-54
2022/11/14 11:13:47;;;;;;;46.67;28.13;;;7.00;99.90;;;;;;5019056;28;20064;-57
2022/11/14 11:16:13;;;;;;;44.65;27.45;;;7.00;99.90;;;;;;5019982;28;20060;-56
2022/11/14 11:18:38;;;;;;;44.47;28.08;;;7.40;99.90;;;;;;5021340;28;20057;-49
2022/11/14 11:21:13;;;;;;;42.70;27.40;;;7.20;99.90;;;;;;5019831;28;20060;-47
2022/11/14 11:23:55;;;;;;;41.92;27.10;;;7.10;99.90;;;;;;5019257;28;20965;-48
2022/11/14 11:26:23;;;;;;;45.67;29.60;;;7.20;99.90;;;;;;5020738;28;20129;-49
2022/11/14 11:29:11;;;;;;;44.28;29.52;;;7.20;99.90;;;;;;5021461;28;20746;-47
2022/11/14 11:31:57;;;;;;;43.10;29.60;;;7.40;99.90;;;;;;5021610;28;20497;-49
2022/11/14 11:34:26;;;;;;;40.55;26.80;;;7.40;99.90;;;;;;5020945;28;20049;-52
2022/11/14 11:37:25;;;;;;;42.17;27.73;;;7.50;99.90;;;;;;5021804;28;20096;-52
2022/11/14 11:39:57;;;;;;;41.97;27.88;;;7.60;99.90;;;;;;5025371;28;20061;-50
2022/11/14 11:42:48;;;;;;;42.65;28.30;;;7.50;99.90;;;;;;5025231;28;20100;-50
2022/11/14 11:45:17;;;;;;;42.10;27.73;;;7.50;99.90;;;;;;5025333;28;20049;-47
2022/11/14 11:47:51;;;;;;;44.30;28.30;;;7.40;99.90;;;;;;5025524;28;20112;-52
2022/11/14 11:50:20;;;;;;;50.92;29.58;;;7.40;99.90;;;;;;5025251;28;20506;-54
2022/11/14 11:53:01;;;;;;;44.15;28.25;;;8.10;99.90;;;;;;5025266;28;20491;-52
2022/11/14 11:55:32;;;;;;;42.90;28.58;;;7.40;99.90;;;;;;5024979;28;20146;-58
2022/11/14 11:58:35;;;;;;;43.22;28.60;;;7.50;99.90;;;;;;5024931;28;20709;-53
2022/11/14 12:01:00;;;;;;;43.10;27.58;;;7.50;99.90;;;;;;5012429;28;20412;-55
2022/11/14 12:03:26;;;;;;;42.83;28.30;;;7.80;99.90;;;;;;5024321;28;20049;-52
2022/11/14 12:06:14;;;;;;;45.03;27.83;;;7.50;99.90;;;;;;5024421;28;20469;-53
2022/11/14 12:09:07;;;;;;;43.60;27.67;;;7.60;99.90;;;;;;5025282;28;20041;-53
2022/11/14 12:11:38;;;;;;;41.92;27.70;;;7.60;99.90;;;;;;5027737;28;20045;-53
2022/11/14 12:14:17;;;;;;;44.20;28.55;;;7.70;99.90;;;;;;5027475;28;20089;-53
2022/11/14 12:17:21;;;;;;;41.63;26.08;;;7.70;99.90;;;;;;5028496;28;20056;-52
2022/11/14 12:20:15;;;;;;;41.13;27.05;;;7.80;99.90;;;;;;5028544;28;20053;-54
2022/11/14 12:22:55;;;;;;;37.45;26.00;;;7.70;99.90;;;;;;5028669;28;20061;-51
2022/11/14 12:26:05;;;;;;;42.60;26.58;;;7.60;99.90;;;;;;5028368;28;20133;-53
2022/11/14 12:28:58;;;;;;;41.35;26.70;;;7.70;99.90;;;;;;5026977;28;20049;-54
2022/11/14 12:31:27;;;;;;;39.15;26.08;;;7.70;99.90;;;;;;5028546;28;20052;-54
2022/11/14 12:34:04;;;;;;;38.65;24.42;;;7.70;99.90;;;;;;5026508;28;20049;-54
2022/11/14 12:36:33;;;;;;;38.72;25.98;;;7.90;99.90;;;;;;5023322;28;20376;-50
2022/11/14 12:39:00;;;;;;;39.50;26.15;;;7.70;99.90;;;;;;5025880;28;20045;-55
2022/11/14 12:41:31;;;;;;;38.42;27.15;;;7.80;99.90;;;;;;5027514;28;20128;-45
2022/11/14 12:44:15;;;;;;;38.65;24.95;;;7.80;99.90;;;;;;5028557;28;20041;-51
2022/11/14 12:47:06;;;;;;;37.20;24.60;;;7.90;99.90;;;;;;5028576;28;20549;-48
2022/11/14 12:49:56;;;;;;;37.53;24.80;;;7.80;99.90;;;;;;5027432;28;20049;-50
2022/11/14 12:52:53;;;;;;;35.25;24.00;;;7.60;99.90;;;;;;5027975;28;20041;-48
2022/11/14 12:55:24;;;;;;;35.80;25.42;;;7.70;99.90;;;;;;5028110;28;20041;-46